sensor_id;sensor_type;location;lat;lon;timestamp;P1;durP1;ratioP1;P2;durP2;ratioP2
41061;SDS011;26812;42.662;23.352;2023-06-14T00:01:19;9.52;;;6.65;;
41061;SDS011;26812;42.662;23.352;2023-06-14T00:03:47;10.32;;;7.07;;
41061;SDS011;26812;42.662;23.352;2023-06-14T00:06:13;20.75;;;7.40;;
41061;SDS011;26812;42.662;23.352;2023-06-14T00:08:39;8.60;;;5.43;;
41061;SDS011;26812;42.662;23.352;2023-06-14T00:11:05;9.93;;;5.45;;
41061;SDS011;26812;42.662;23.352;2023-06-14T00:13:31;8.68;;;5.30;;
41061;SDS011;26812;42.662;23.352;2023-06-14T00:15:56;9.48;;;5.15;;
41061;SDS011;26812;42.662;23.352;2023-06-14T00:18:22;8.30;;;4.90;;
41061;SDS011;26812;42.662;23.352;2023-06-14T00:20:54;9.13;;;5.88;;
41061;SDS011;26812;42.662;23.352;2023-06-14T00:23:20;9.20;;;5.78;;
41061;SDS011;26812;42.662;23.352;2023-06-14T00:25:46;6.35;;;4.53;;
41061;SDS011;26812;42.662;23.352;2023-06-14T00:28:11;8.05;;;5.13;;
41061;SDS011;26812;42.662;23.352;2023-06-14T00:30:37;6.93;;;4.70;;
41061;SDS011;26812;42.662;23.352;2023-06-14T00:33:02;9.73;;;5.78;;
41061;SDS011;26812;42.662;23.352;2023-06-14T00:35:28;6.63;;;4.68;;
41061;SDS011;26812;42.662;23.352;2023-06-14T00:37:53;6.72;;;4.72;;
41061;SDS011;26812;42.662;23.352;2023-06-14T00:40:20;8.15;;;4.72;;
41061;SDS011;26812;42.662;23.352;2023-06-14T00:42:46;7.10;;;4.38;;
41061;SDS011;26812;42.662;23.352;2023-06-14T00:45:12;6.22;;;4.18;;
41061;SDS011;26812;42.662;23.352;2023-06-14T00:47:37;7.75;;;4.82;;
41061;SDS011;26812;42.662;23.352;2023-06-14T00:50:06;5.40;;;3.88;;
41061;SDS011;26812;42.662;23.352;2023-06-14T00:52:32;6.90;;;4.63;;
41061;SDS011;26812;42.662;23.352;2023-06-14T00:54:59;6.47;;;4.43;;
41061;SDS011;26812;42.662;23.352;2023-06-14T00:57:25;7.35;;;4.90;;
41061;SDS011;26812;42.662;23.352;2023-06-14T00:59:51;6.28;;;4.53;;
41061;SDS011;26812;42.662;23.352;2023-06-14T01:02:16;6.50;;;3.75;;
41061;SDS011;26812;42.662;23.352;2023-06-14T01:04:46;7.00;;;4.20;;
41061;SDS011;26812;42.662;23.352;2023-06-14T01:08:00;4.00;;;3.08;;
41061;SDS011;26812;42.662;23.352;2023-06-14T01:15:31;4.65;;;3.78;;
41061;SDS011;26812;42.662;23.352;2023-06-14T01:17:57;4.55;;;3.90;;
41061;SDS011;26812;42.662;23.352;2023-06-14T01:20:28;6.72;;;4.05;;
41061;SDS011;26812;42.662;23.352;2023-06-14T01:22:56;7.30;;;4.25;;
41061;SDS011;26812;42.662;23.352;2023-06-14T01:25:21;5.25;;;4.05;;
41061;SDS011;26812;42.662;23.352;2023-06-14T01:27:48;6.65;;;3.72;;
41061;SDS011;26812;42.662;23.352;2023-06-14T01:30:18;5.72;;;3.25;;
41061;SDS011;26812;42.662;23.352;2023-06-14T01:32:46;4.25;;;3.15;;
41061;SDS011;26812;42.662;23.352;2023-06-14T01:35:13;4.35;;;3.45;;
41061;SDS011;26812;42.662;23.352;2023-06-14T01:37:39;3.92;;;3.47;;
41061;SDS011;26812;42.662;23.352;2023-06-14T01:40:07;6.70;;;3.30;;
41061;SDS011;26812;42.662;23.352;2023-06-14T01:42:35;5.32;;;3.78;;
41061;SDS011;26812;42.662;23.352;2023-06-14T01:45:03;6.55;;;3.70;;
41061;SDS011;26812;42.662;23.352;2023-06-14T01:47:31;6.13;;;4.05;;
41061;SDS011;26812;42.662;23.352;2023-06-14T01:49:57;5.32;;;3.70;;
41061;SDS011;26812;42.662;23.352;2023-06-14T01:52:22;5.13;;;3.67;;
41061;SDS011;26812;42.662;23.352;2023-06-14T01:54:49;5.82;;;4.03;;
41061;SDS011;26812;42.662;23.352;2023-06-14T01:57:17;6.57;;;3.90;;
41061;SDS011;26812;42.662;23.352;2023-06-14T01:59:42;5.90;;;3.72;;
41061;SDS011;26812;42.662;23.352;2023-06-14T02:02:08;5.00;;;3.60;;
41061;SDS011;26812;42.662;23.352;2023-06-14T02:04:33;4.97;;;3.70;;
41061;SDS011;26812;42.662;23.352;2023-06-14T02:06:59;7.05;;;3.90;;
41061;SDS011;26812;42.662;23.352;2023-06-14T02:09:24;6.38;;;3.65;;
41061;SDS011;26812;42.662;23.352;2023-06-14T02:11:50;5.32;;;3.72;;
41061;SDS011;26812;42.662;23.352;2023-06-14T02:14:16;4.72;;;3.72;;
41061;SDS011;26812;42.662;23.352;2023-06-14T02:16:42;6.38;;;4.03;;
41061;SDS011;26812;42.662;23.352;2023-06-14T02:19:13;7.32;;;4.45;;
41061;SDS011;26812;42.662;23.352;2023-06-14T02:21:46;6.22;;;4.25;;
41061;SDS011;26812;42.662;23.352;2023-06-14T02:24:12;6.40;;;3.88;;
41061;SDS011;26812;42.662;23.352;2023-06-14T02:26:38;5.75;;;4.30;;
41061;SDS011;26812;42.662;23.352;2023-06-14T02:29:06;8.52;;;4.85;;
41061;SDS011;26812;42.662;23.352;2023-06-14T02:31:35;7.53;;;3.92;;
41061;SDS011;26812;42.662;23.352;2023-06-14T02:34:00;7.57;;;5.63;;
41061;SDS011;26812;42.662;23.352;2023-06-14T02:36:25;6.45;;;4.47;;
41061;SDS011;26812;42.662;23.352;2023-06-14T02:38:51;6.10;;;4.13;;
41061;SDS011;26812;42.662;23.352;2023-06-14T02:41:19;6.60;;;4.32;;
41061;SDS011;26812;42.662;23.352;2023-06-14T02:43:44;6.13;;;3.92;;
41061;SDS011;26812;42.662;23.352;2023-06-14T02:46:10;7.13;;;4.50;;
41061;SDS011;26812;42.662;23.352;2023-06-14T02:48:36;5.32;;;3.47;;
41061;SDS011;26812;42.662;23.352;2023-06-14T02:51:01;6.20;;;4.00;;
41061;SDS011;26812;42.662;23.352;2023-06-14T02:53:27;5.38;;;4.05;;
41061;SDS011;26812;42.662;23.352;2023-06-14T02:55:52;6.60;;;4.38;;
41061;SDS011;26812;42.662;23.352;2023-06-14T02:58:20;6.35;;;4.35;;
41061;SDS011;26812;42.662;23.352;2023-06-14T03:00:46;4.72;;;4.00;;
41061;SDS011;26812;42.662;23.352;2023-06-14T03:03:11;5.65;;;3.92;;
41061;SDS011;26812;42.662;23.352;2023-06-14T03:05:43;5.25;;;3.58;;
41061;SDS011;26812;42.662;23.352;2023-06-14T03:08:12;5.97;;;3.92;;
41061;SDS011;26812;42.662;23.352;2023-06-14T03:10:44;5.35;;;4.30;;
41061;SDS011;26812;42.662;23.352;2023-06-14T03:13:10;4.88;;;3.47;;
41061;SDS011;26812;42.662;23.352;2023-06-14T03:15:36;7.18;;;4.15;;
41061;SDS011;26812;42.662;23.352;2023-06-14T03:18:01;5.15;;;3.58;;
41061;SDS011;26812;42.662;23.352;2023-06-14T03:20:28;5.63;;;3.97;;
41061;SDS011;26812;42.662;23.352;2023-06-14T03:22:54;6.15;;;4.07;;
41061;SDS011;26812;42.662;23.352;2023-06-14T03:25:20;5.32;;;3.97;;
41061;SDS011;26812;42.662;23.352;2023-06-14T03:27:47;5.15;;;3.63;;
41061;SDS011;26812;42.662;23.352;2023-06-14T03:30:12;5.38;;;3.95;;
41061;SDS011;26812;42.662;23.352;2023-06-14T03:32:38;5.75;;;4.85;;
41061;SDS011;26812;42.662;23.352;2023-06-14T03:35:04;6.00;;;4.28;;
41061;SDS011;26812;42.662;23.352;2023-06-14T03:37:30;4.30;;;3.47;;
41061;SDS011;26812;42.662;23.352;2023-06-14T03:39:55;6.47;;;4.30;;
41061;SDS011;26812;42.662;23.352;2023-06-14T03:42:20;5.57;;;4.00;;
41061;SDS011;26812;42.662;23.352;2023-06-14T03:44:46;4.43;;;3.33;;
41061;SDS011;26812;42.662;23.352;2023-06-14T03:47:11;4.65;;;3.42;;
41061;SDS011;26812;42.662;23.352;2023-06-14T03:49:37;5.10;;;3.80;;
41061;SDS011;26812;42.662;23.352;2023-06-14T03:52:02;6.65;;;4.65;;
41061;SDS011;26812;42.662;23.352;2023-06-14T03:54:28;6.70;;;4.72;;
41061;SDS011;26812;42.662;23.352;2023-06-14T03:56:54;5.88;;;3.95;;
41061;SDS011;26812;42.662;23.352;2023-06-14T03:59:21;6.78;;;4.13;;
41061;SDS011;26812;42.662;23.352;2023-06-14T04:01:47;8.43;;;5.15;;
41061;SDS011;26812;42.662;23.352;2023-06-14T04:04:13;6.32;;;4.20;;
41061;SDS011;26812;42.662;23.352;2023-06-14T04:06:41;10.23;;;4.88;;
41061;SDS011;26812;42.662;23.352;2023-06-14T04:09:07;8.50;;;5.30;;
41061;SDS011;26812;42.662;23.352;2023-06-14T04:11:33;8.38;;;4.75;;
41061;SDS011;26812;42.662;23.352;2023-06-14T04:13:59;7.78;;;5.53;;
41061;SDS011;26812;42.662;23.352;2023-06-14T04:16:24;8.68;;;6.07;;
41061;SDS011;26812;42.662;23.352;2023-06-14T04:18:50;7.22;;;4.90;;
41061;SDS011;26812;42.662;23.352;2023-06-14T04:21:17;6.43;;;4.75;;
41061;SDS011;26812;42.662;23.352;2023-06-14T04:23:43;8.80;;;5.40;;
41061;SDS011;26812;42.662;23.352;2023-06-14T04:26:09;8.20;;;5.55;;
41061;SDS011;26812;42.662;23.352;2023-06-14T04:28:35;6.22;;;3.70;;
41061;SDS011;26812;42.662;23.352;2023-06-14T04:31:06;6.97;;;4.30;;
41061;SDS011;26812;42.662;23.352;2023-06-14T04:33:33;6.70;;;5.00;;
41061;SDS011;26812;42.662;23.352;2023-06-14T04:36:12;10.15;;;5.65;;
41061;SDS011;26812;42.662;23.352;2023-06-14T04:38:38;9.55;;;5.00;;
41061;SDS011;26812;42.662;23.352;2023-06-14T04:41:04;8.30;;;5.97;;
41061;SDS011;26812;42.662;23.352;2023-06-14T04:43:29;8.63;;;6.10;;
41061;SDS011;26812;42.662;23.352;2023-06-14T04:45:56;11.05;;;5.72;;
41061;SDS011;26812;42.662;23.352;2023-06-14T04:48:22;7.30;;;4.72;;
41061;SDS011;26812;42.662;23.352;2023-06-14T04:50:48;9.55;;;5.97;;
41061;SDS011;26812;42.662;23.352;2023-06-14T04:53:17;7.30;;;5.55;;
41061;SDS011;26812;42.662;23.352;2023-06-14T04:55:46;7.60;;;5.10;;
41061;SDS011;26812;42.662;23.352;2023-06-14T04:58:11;8.13;;;5.78;;
41061;SDS011;26812;42.662;23.352;2023-06-14T05:00:38;9.48;;;4.80;;
41061;SDS011;26812;42.662;23.352;2023-06-14T05:03:03;9.40;;;6.22;;
41061;SDS011;26812;42.662;23.352;2023-06-14T05:05:30;9.07;;;5.72;;
41061;SDS011;26812;42.662;23.352;2023-06-14T05:07:56;10.05;;;6.53;;
41061;SDS011;26812;42.662;23.352;2023-06-14T05:10:21;11.93;;;6.70;;
41061;SDS011;26812;42.662;23.352;2023-06-14T05:12:47;10.52;;;6.75;;
41061;SDS011;26812;42.662;23.352;2023-06-14T05:15:13;11.85;;;7.10;;
41061;SDS011;26812;42.662;23.352;2023-06-14T05:17:39;10.32;;;7.07;;
41061;SDS011;26812;42.662;23.352;2023-06-14T05:20:06;12.25;;;7.13;;
41061;SDS011;26812;42.662;23.352;2023-06-14T05:22:32;13.70;;;7.60;;
41061;SDS011;26812;42.662;23.352;2023-06-14T05:24:57;10.10;;;6.15;;
41061;SDS011;26812;42.662;23.352;2023-06-14T05:27:22;12.05;;;7.28;;
41061;SDS011;26812;42.662;23.352;2023-06-14T05:29:49;9.75;;;7.00;;
41061;SDS011;26812;42.662;23.352;2023-06-14T05:32:23;11.40;;;7.28;;
41061;SDS011;26812;42.662;23.352;2023-06-14T05:35:34;12.07;;;7.10;;
41061;SDS011;26812;42.662;23.352;2023-06-14T05:38:00;11.77;;;7.40;;
41061;SDS011;26812;42.662;23.352;2023-06-14T05:40:28;11.98;;;7.75;;
41061;SDS011;26812;42.662;23.352;2023-06-14T05:42:54;11.13;;;7.43;;
41061;SDS011;26812;42.662;23.352;2023-06-14T05:45:19;15.02;;;7.50;;
41061;SDS011;26812;42.662;23.352;2023-06-14T05:47:45;14.15;;;7.80;;
41061;SDS011;26812;42.662;23.352;2023-06-14T05:50:10;10.30;;;7.38;;
41061;SDS011;26812;42.662;23.352;2023-06-14T05:52:36;12.82;;;7.47;;
41061;SDS011;26812;42.662;23.352;2023-06-14T05:55:02;12.10;;;7.03;;
41061;SDS011;26812;42.662;23.352;2023-06-14T05:57:28;10.45;;;7.38;;
41061;SDS011;26812;42.662;23.352;2023-06-14T05:59:54;11.23;;;7.05;;
41061;SDS011;26812;42.662;23.352;2023-06-14T06:02:19;11.68;;;7.57;;
41061;SDS011;26812;42.662;23.352;2023-06-14T06:04:45;10.90;;;7.15;;
41061;SDS011;26812;42.662;23.352;2023-06-14T06:07:10;11.80;;;6.80;;
41061;SDS011;26812;42.662;23.352;2023-06-14T06:09:36;12.02;;;7.10;;
41061;SDS011;26812;42.662;23.352;2023-06-14T06:12:01;8.82;;;6.43;;
41061;SDS011;26812;42.662;23.352;2023-06-14T06:14:27;12.18;;;6.35;;
41061;SDS011;26812;42.662;23.352;2023-06-14T06:16:54;11.23;;;7.32;;
41061;SDS011;26812;42.662;23.352;2023-06-14T06:19:19;14.90;;;9.07;;
41061;SDS011;26812;42.662;23.352;2023-06-14T06:21:45;16.30;;;10.02;;
41061;SDS011;26812;42.662;23.352;2023-06-14T06:24:11;11.70;;;7.30;;
41061;SDS011;26812;42.662;23.352;2023-06-14T06:26:36;11.02;;;6.95;;
41061;SDS011;26812;42.662;23.352;2023-06-14T06:29:02;14.38;;;9.55;;
41061;SDS011;26812;42.662;23.352;2023-06-14T06:31:27;12.63;;;7.40;;
41061;SDS011;26812;42.662;23.352;2023-06-14T06:33:53;12.93;;;8.27;;
41061;SDS011;26812;42.662;23.352;2023-06-14T06:36:19;13.10;;;7.53;;
41061;SDS011;26812;42.662;23.352;2023-06-14T06:38:46;13.82;;;8.45;;
41061;SDS011;26812;42.662;23.352;2023-06-14T06:41:12;9.88;;;7.82;;
41061;SDS011;26812;42.662;23.352;2023-06-14T06:43:37;16.00;;;8.55;;
41061;SDS011;26812;42.662;23.352;2023-06-14T06:46:03;12.90;;;8.48;;
41061;SDS011;26812;42.662;23.352;2023-06-14T06:48:28;12.40;;;7.90;;
41061;SDS011;26812;42.662;23.352;2023-06-14T06:50:54;12.60;;;7.47;;
41061;SDS011;26812;42.662;23.352;2023-06-14T06:53:20;17.95;;;10.13;;
41061;SDS011;26812;42.662;23.352;2023-06-14T06:55:45;12.07;;;8.15;;
41061;SDS011;26812;42.662;23.352;2023-06-14T06:58:11;13.23;;;8.82;;
41061;SDS011;26812;42.662;23.352;2023-06-14T07:00:37;15.75;;;9.00;;
41061;SDS011;26812;42.662;23.352;2023-06-14T07:03:03;15.88;;;9.40;;
41061;SDS011;26812;42.662;23.352;2023-06-14T07:05:28;12.63;;;8.50;;
41061;SDS011;26812;42.662;23.352;2023-06-14T07:07:54;14.30;;;8.93;;
41061;SDS011;26812;42.662;23.352;2023-06-14T07:10:20;16.20;;;9.00;;
41061;SDS011;26812;42.662;23.352;2023-06-14T07:12:45;14.38;;;9.07;;
41061;SDS011;26812;42.662;23.352;2023-06-14T07:15:11;13.48;;;8.38;;
41061;SDS011;26812;42.662;23.352;2023-06-14T07:17:36;14.50;;;8.35;;
41061;SDS011;26812;42.662;23.352;2023-06-14T07:20:02;13.93;;;9.38;;
41061;SDS011;26812;42.662;23.352;2023-06-14T07:22:36;15.20;;;9.00;;
41061;SDS011;26812;42.662;23.352;2023-06-14T07:25:06;14.85;;;9.48;;
41061;SDS011;26812;42.662;23.352;2023-06-14T07:27:33;14.52;;;7.20;;
41061;SDS011;26812;42.662;23.352;2023-06-14T07:29:59;13.75;;;7.78;;
41061;SDS011;26812;42.662;23.352;2023-06-14T07:32:24;17.10;;;8.65;;
41061;SDS011;26812;42.662;23.352;2023-06-14T07:34:50;12.82;;;7.50;;
41061;SDS011;26812;42.662;23.352;2023-06-14T07:37:15;11.27;;;6.63;;
41061;SDS011;26812;42.662;23.352;2023-06-14T07:39:40;14.60;;;8.48;;
41061;SDS011;26812;42.662;23.352;2023-06-14T07:42:06;12.90;;;7.72;;
41061;SDS011;26812;42.662;23.352;2023-06-14T07:44:31;11.00;;;7.47;;
41061;SDS011;26812;42.662;23.352;2023-06-14T07:46:57;16.17;;;7.95;;
41061;SDS011;26812;42.662;23.352;2023-06-14T07:49:24;12.57;;;7.57;;
41061;SDS011;26812;42.662;23.352;2023-06-14T07:51:50;14.57;;;7.55;;
41061;SDS011;26812;42.662;23.352;2023-06-14T07:54:16;11.60;;;7.68;;
41061;SDS011;26812;42.662;23.352;2023-06-14T07:56:42;13.82;;;8.07;;
41061;SDS011;26812;42.662;23.352;2023-06-14T07:59:07;11.77;;;8.23;;
41061;SDS011;26812;42.662;23.352;2023-06-14T08:01:33;9.10;;;6.57;;
41061;SDS011;26812;42.662;23.352;2023-06-14T08:03:58;11.15;;;6.85;;
41061;SDS011;26812;42.662;23.352;2023-06-14T08:06:24;10.18;;;7.38;;
41061;SDS011;26812;42.662;23.352;2023-06-14T08:08:50;8.85;;;6.50;;
41061;SDS011;26812;42.662;23.352;2023-06-14T08:11:15;11.05;;;7.20;;
41061;SDS011;26812;42.662;23.352;2023-06-14T08:13:41;10.25;;;7.32;;
41061;SDS011;26812;42.662;23.352;2023-06-14T08:16:07;11.00;;;7.30;;
41061;SDS011;26812;42.662;23.352;2023-06-14T08:18:32;12.05;;;7.75;;
41061;SDS011;26812;42.662;23.352;2023-06-14T08:20:57;11.85;;;8.05;;
41061;SDS011;26812;42.662;23.352;2023-06-14T08:23:23;9.77;;;6.93;;
41061;SDS011;26812;42.662;23.352;2023-06-14T08:25:48;9.43;;;6.90;;
41061;SDS011;26812;42.662;23.352;2023-06-14T08:28:14;11.70;;;7.10;;
41061;SDS011;26812;42.662;23.352;2023-06-14T08:30:40;10.48;;;7.40;;
41061;SDS011;26812;42.662;23.352;2023-06-14T08:33:07;9.90;;;7.22;;
41061;SDS011;26812;42.662;23.352;2023-06-14T08:35:32;11.05;;;6.90;;
41061;SDS011;26812;42.662;23.352;2023-06-14T08:37:58;13.95;;;8.50;;
41061;SDS011;26812;42.662;23.352;2023-06-14T08:40:23;9.80;;;7.57;;
41061;SDS011;26812;42.662;23.352;2023-06-14T08:42:52;10.57;;;7.80;;
41061;SDS011;26812;42.662;23.352;2023-06-14T08:45:19;11.48;;;7.28;;
41061;SDS011;26812;42.662;23.352;2023-06-14T08:47:48;9.45;;;7.40;;
41061;SDS011;26812;42.662;23.352;2023-06-14T08:50:20;9.57;;;7.60;;
41061;SDS011;26812;42.662;23.352;2023-06-14T08:52:47;10.10;;;7.18;;
41061;SDS011;26812;42.662;23.352;2023-06-14T08:55:15;9.07;;;6.43;;
41061;SDS011;26812;42.662;23.352;2023-06-14T08:57:42;10.38;;;6.35;;
41061;SDS011;26812;42.662;23.352;2023-06-14T09:00:09;8.85;;;6.72;;
41061;SDS011;26812;42.662;23.352;2023-06-14T09:02:39;11.20;;;7.30;;
41061;SDS011;26812;42.662;23.352;2023-06-14T09:05:12;9.77;;;6.47;;
41061;SDS011;26812;42.662;23.352;2023-06-14T09:07:43;11.82;;;7.60;;
41061;SDS011;26812;42.662;23.352;2023-06-14T09:10:09;8.77;;;6.70;;
41061;SDS011;26812;42.662;23.352;2023-06-14T09:12:37;11.48;;;7.28;;
41061;SDS011;26812;42.662;23.352;2023-06-14T09:15:03;9.63;;;6.32;;
41061;SDS011;26812;42.662;23.352;2023-06-14T09:17:37;11.70;;;7.57;;
41061;SDS011;26812;42.662;23.352;2023-06-14T09:20:03;10.77;;;7.18;;
41061;SDS011;26812;42.662;23.352;2023-06-14T09:22:34;8.70;;;6.28;;
41061;SDS011;26812;42.662;23.352;2023-06-14T09:25:00;12.20;;;7.05;;
41061;SDS011;26812;42.662;23.352;2023-06-14T09:27:26;12.73;;;7.65;;
41061;SDS011;26812;42.662;23.352;2023-06-14T09:29:52;11.35;;;6.95;;
41061;SDS011;26812;42.662;23.352;2023-06-14T09:32:18;9.88;;;6.10;;
41061;SDS011;26812;42.662;23.352;2023-06-14T09:34:44;8.73;;;6.13;;
41061;SDS011;26812;42.662;23.352;2023-06-14T09:37:10;11.95;;;7.03;;
41061;SDS011;26812;42.662;23.352;2023-06-14T09:39:35;7.55;;;5.57;;
41061;SDS011;26812;42.662;23.352;2023-06-14T09:42:16;10.55;;;6.05;;
41061;SDS011;26812;42.662;23.352;2023-06-14T09:44:44;8.95;;;6.40;;
41061;SDS011;26812;42.662;23.352;2023-06-14T09:47:12;10.15;;;6.20;;
41061;SDS011;26812;42.662;23.352;2023-06-14T09:49:39;11.07;;;6.88;;
41061;SDS011;26812;42.662;23.352;2023-06-14T09:52:05;11.73;;;6.93;;
41061;SDS011;26812;42.662;23.352;2023-06-14T09:54:32;9.70;;;6.07;;
41061;SDS011;26812;42.662;23.352;2023-06-14T09:57:01;7.97;;;6.35;;
41061;SDS011;26812;42.662;23.352;2023-06-14T09:59:29;8.02;;;6.15;;
41061;SDS011;26812;42.662;23.352;2023-06-14T10:01:58;9.88;;;5.85;;
41061;SDS011;26812;42.662;23.352;2023-06-14T10:04:24;8.93;;;6.13;;
41061;SDS011;26812;42.662;23.352;2023-06-14T10:06:51;8.45;;;5.60;;
41061;SDS011;26812;42.662;23.352;2023-06-14T10:09:18;11.75;;;6.57;;
41061;SDS011;26812;42.662;23.352;2023-06-14T10:11:44;6.68;;;5.78;;
41061;SDS011;26812;42.662;23.352;2023-06-14T10:14:11;10.27;;;5.65;;
41061;SDS011;26812;42.662;23.352;2023-06-14T10:19:11;9.35;;;6.63;;
41061;SDS011;26812;42.662;23.352;2023-06-14T10:27:08;9.32;;;6.07;;
41061;SDS011;26812;42.662;23.352;2023-06-14T10:32:23;7.63;;;6.18;;
41061;SDS011;26812;42.662;23.352;2023-06-14T10:37:22;8.25;;;5.40;;
41061;SDS011;26812;42.662;23.352;2023-06-14T10:39:47;7.22;;;5.32;;
41061;SDS011;26812;42.662;23.352;2023-06-14T10:42:13;7.65;;;5.93;;
41061;SDS011;26812;42.662;23.352;2023-06-14T10:47:06;6.78;;;5.43;;
41061;SDS011;26812;42.662;23.352;2023-06-14T10:52:07;8.23;;;6.32;;
41061;SDS011;26812;42.662;23.352;2023-06-14T10:55:46;8.68;;;6.18;;
41061;SDS011;26812;42.662;23.352;2023-06-14T10:58:07;9.13;;;5.68;;
41061;SDS011;26812;42.662;23.352;2023-06-14T11:00:32;7.75;;;5.40;;
41061;SDS011;26812;42.662;23.352;2023-06-14T11:10:56;6.10;;;5.00;;
41061;SDS011;26812;42.662;23.352;2023-06-14T11:13:25;7.78;;;6.47;;
41061;SDS011;26812;42.662;23.352;2023-06-14T11:15:51;8.18;;;5.70;;
41061;SDS011;26812;42.662;23.352;2023-06-14T11:18:19;5.90;;;5.22;;
41061;SDS011;26812;42.662;23.352;2023-06-14T11:20:56;7.72;;;4.82;;
41061;SDS011;26812;42.662;23.352;2023-06-14T11:23:22;7.07;;;5.05;;
41061;SDS011;26812;42.662;23.352;2023-06-14T11:25:51;7.65;;;5.47;;
41061;SDS011;26812;42.662;23.352;2023-06-14T11:31:03;7.20;;;5.40;;
41061;SDS011;26812;42.662;23.352;2023-06-14T11:33:29;8.93;;;6.60;;
41061;SDS011;26812;42.662;23.352;2023-06-14T11:35:54;6.97;;;5.88;;
41061;SDS011;26812;42.662;23.352;2023-06-14T11:38:20;8.48;;;5.47;;
41061;SDS011;26812;42.662;23.352;2023-06-14T11:40:45;8.18;;;5.70;;
41061;SDS011;26812;42.662;23.352;2023-06-14T11:43:16;7.07;;;5.32;;
41061;SDS011;26812;42.662;23.352;2023-06-14T11:45:42;6.60;;;4.85;;
41061;SDS011;26812;42.662;23.352;2023-06-14T11:48:08;7.03;;;5.68;;
41061;SDS011;26812;42.662;23.352;2023-06-14T11:50:33;5.70;;;4.82;;
41061;SDS011;26812;42.662;23.352;2023-06-14T11:53:06;7.57;;;5.28;;
41061;SDS011;26812;42.662;23.352;2023-06-14T11:55:36;6.38;;;4.97;;
41061;SDS011;26812;42.662;23.352;2023-06-14T11:58:05;6.13;;;4.85;;
41061;SDS011;26812;42.662;23.352;2023-06-14T12:00:31;7.53;;;4.53;;
41061;SDS011;26812;42.662;23.352;2023-06-14T12:02:57;6.38;;;5.00;;
41061;SDS011;26812;42.662;23.352;2023-06-14T12:05:23;5.28;;;4.47;;
41061;SDS011;26812;42.662;23.352;2023-06-14T12:07:49;5.35;;;4.38;;
41061;SDS011;26812;42.662;23.352;2023-06-14T12:10:15;4.43;;;4.03;;
41061;SDS011;26812;42.662;23.352;2023-06-14T12:12:41;5.65;;;4.47;;
41061;SDS011;26812;42.662;23.352;2023-06-14T12:15:07;4.25;;;3.72;;
41061;SDS011;26812;42.662;23.352;2023-06-14T12:17:34;4.75;;;4.05;;
41061;SDS011;26812;42.662;23.352;2023-06-14T12:20:04;4.63;;;4.10;;
41061;SDS011;26812;42.662;23.352;2023-06-14T12:22:38;5.25;;;4.38;;
41061;SDS011;26812;42.662;23.352;2023-06-14T12:25:11;9.32;;;6.15;;
41061;SDS011;26812;42.662;23.352;2023-06-14T12:27:59;5.45;;;4.82;;
41061;SDS011;26812;42.662;23.352;2023-06-14T12:30:29;5.85;;;3.97;;
41061;SDS011;26812;42.662;23.352;2023-06-14T12:32:54;6.03;;;4.53;;
41061;SDS011;26812;42.662;23.352;2023-06-14T12:35:19;6.20;;;4.25;;
41061;SDS011;26812;42.662;23.352;2023-06-14T12:37:45;7.05;;;4.30;;
41061;SDS011;26812;42.662;23.352;2023-06-14T12:40:11;8.30;;;4.90;;
41061;SDS011;26812;42.662;23.352;2023-06-14T12:42:37;5.78;;;4.78;;
41061;SDS011;26812;42.662;23.352;2023-06-14T12:45:02;5.28;;;4.07;;
41061;SDS011;26812;42.662;23.352;2023-06-14T12:47:28;6.30;;;4.90;;
41061;SDS011;26812;42.662;23.352;2023-06-14T12:49:53;6.90;;;4.03;;
41061;SDS011;26812;42.662;23.352;2023-06-14T12:52:19;4.68;;;4.18;;
41061;SDS011;26812;42.662;23.352;2023-06-14T12:54:44;8.30;;;4.43;;
41061;SDS011;26812;42.662;23.352;2023-06-14T12:57:10;5.88;;;4.30;;
41061;SDS011;26812;42.662;23.352;2023-06-14T12:59:35;4.93;;;4.38;;
41061;SDS011;26812;42.662;23.352;2023-06-14T13:02:13;6.43;;;4.80;;
41061;SDS011;26812;42.662;23.352;2023-06-14T13:04:40;5.20;;;4.25;;
41061;SDS011;26812;42.662;23.352;2023-06-14T13:07:05;5.07;;;3.67;;
41061;SDS011;26812;42.662;23.352;2023-06-14T13:09:31;6.40;;;4.28;;
41061;SDS011;26812;42.662;23.352;2023-06-14T13:11:56;5.25;;;4.22;;
41061;SDS011;26812;42.662;23.352;2023-06-14T13:14:21;6.20;;;4.13;;
41061;SDS011;26812;42.662;23.352;2023-06-14T13:16:47;5.68;;;4.32;;
41061;SDS011;26812;42.662;23.352;2023-06-14T13:19:13;5.65;;;4.57;;
41061;SDS011;26812;42.662;23.352;2023-06-14T13:21:38;7.30;;;4.30;;
41061;SDS011;26812;42.662;23.352;2023-06-14T13:24:03;5.63;;;4.60;;
41061;SDS011;26812;42.662;23.352;2023-06-14T13:26:29;5.22;;;4.72;;
41061;SDS011;26812;42.662;23.352;2023-06-14T13:28:55;7.13;;;5.30;;
41061;SDS011;26812;42.662;23.352;2023-06-14T13:31:20;10.77;;;4.38;;
41061;SDS011;26812;42.662;23.352;2023-06-14T13:33:46;5.57;;;4.85;;
41061;SDS011;26812;42.662;23.352;2023-06-14T13:36:11;7.32;;;5.10;;
41061;SDS011;26812;42.662;23.352;2023-06-14T13:38:36;7.28;;;5.30;;
41061;SDS011;26812;42.662;23.352;2023-06-14T13:41:02;8.00;;;4.78;;
41061;SDS011;26812;42.662;23.352;2023-06-14T13:43:27;7.00;;;5.10;;
41061;SDS011;26812;42.662;23.352;2023-06-14T13:45:53;8.57;;;5.22;;
41061;SDS011;26812;42.662;23.352;2023-06-14T13:48:19;7.53;;;4.90;;
41061;SDS011;26812;42.662;23.352;2023-06-14T13:50:44;6.82;;;5.28;;
41061;SDS011;26812;42.662;23.352;2023-06-14T13:53:11;9.27;;;6.07;;
41061;SDS011;26812;42.662;23.352;2023-06-14T13:55:36;7.80;;;5.30;;
41061;SDS011;26812;42.662;23.352;2023-06-14T13:58:02;8.18;;;5.10;;
41061;SDS011;26812;42.662;23.352;2023-06-14T14:00:27;9.25;;;6.13;;
41061;SDS011;26812;42.662;23.352;2023-06-14T14:02:52;7.20;;;5.65;;
41061;SDS011;26812;42.662;23.352;2023-06-14T14:05:19;8.70;;;5.55;;
41061;SDS011;26812;42.662;23.352;2023-06-14T14:07:45;5.72;;;4.65;;
41061;SDS011;26812;42.662;23.352;2023-06-14T14:10:11;7.65;;;5.60;;
41061;SDS011;26812;42.662;23.352;2023-06-14T14:12:38;6.30;;;5.57;;
41061;SDS011;26812;42.662;23.352;2023-06-14T14:15:04;7.18;;;4.70;;
41061;SDS011;26812;42.662;23.352;2023-06-14T14:17:36;7.07;;;4.65;;
41061;SDS011;26812;42.662;23.352;2023-06-14T14:20:02;4.00;;;3.38;;
41061;SDS011;26812;42.662;23.352;2023-06-14T14:22:28;5.07;;;3.60;;
41061;SDS011;26812;42.662;23.352;2023-06-14T14:24:53;4.97;;;4.03;;
41061;SDS011;26812;42.662;23.352;2023-06-14T14:27:18;4.60;;;4.20;;
41061;SDS011;26812;42.662;23.352;2023-06-14T14:29:44;6.30;;;4.80;;
41061;SDS011;26812;42.662;23.352;2023-06-14T14:32:09;6.85;;;4.45;;
41061;SDS011;26812;42.662;23.352;2023-06-14T14:34:38;5.70;;;3.92;;
41061;SDS011;26812;42.662;23.352;2023-06-14T14:37:04;7.07;;;4.93;;
41061;SDS011;26812;42.662;23.352;2023-06-14T14:39:30;7.85;;;5.13;;
41061;SDS011;26812;42.662;23.352;2023-06-14T14:41:55;6.55;;;5.55;;
41061;SDS011;26812;42.662;23.352;2023-06-14T14:44:21;5.35;;;4.70;;
41061;SDS011;26812;42.662;23.352;2023-06-14T14:46:46;6.47;;;4.75;;
41061;SDS011;26812;42.662;23.352;2023-06-14T14:49:12;6.78;;;4.65;;
41061;SDS011;26812;42.662;23.352;2023-06-14T14:51:37;8.05;;;5.38;;
41061;SDS011;26812;42.662;23.352;2023-06-14T14:54:05;6.88;;;5.20;;
41061;SDS011;26812;42.662;23.352;2023-06-14T14:56:30;7.32;;;5.00;;
41061;SDS011;26812;42.662;23.352;2023-06-14T14:58:56;8.02;;;5.88;;
41061;SDS011;26812;42.662;23.352;2023-06-14T15:01:21;7.35;;;5.70;;
41061;SDS011;26812;42.662;23.352;2023-06-14T15:03:47;8.80;;;5.60;;